1889 Cyclonic Storm NOT_NAMED (1889288N14083)


IBTrACS version v04r00. Visit IBTrACS website for data access.
Please direct all questions to the IBTrACS Q and A forum

Storm track - Intensity - Wind Radii - Intensity Data - Source Data - All data

Summary Information

Storm ID 1889288N14083
Start Oct 15 00Z
Landfall Oct 16 00Z
Max Intensity 45 kt (Oct 15 03Z)
End Oct 21 03Z
ATCF IDs
Track status Best track data.

Storm track plot

Map of storm track

Intensity plots

Map of storm track

Radial wind information

No radial wind information for this storm


Position and Intensity Table

BASIN ISO_TIME_________ NATURE LAT LON DS824 WIND
degrees north degrees east kts
NI 1889-10-15 00:00:00 TS 14.00 83.00 45
NI 03:00:00 TS 14.03 82.73 45
NI 06:00:00 TS 14.08 82.36 45
NI 09:00:00 TS 14.13 81.98 45
NI 12:00:00 TS 14.17 81.60 45
NI 15:00:00 TS 14.22 81.17 45
NI 18:00:00 TS 14.28 80.75 45
NI 21:00:00 TS 14.36 80.34 45
NI 1889-10-16 00:00:00 TS 14.45 79.93 45
NI 03:00:00 TS 14.55 79.46 41
NI 06:00:00 TS 14.65 78.96 37
NI 09:00:00 TS 14.78 78.46 33
NI 12:00:00 TS 14.93 77.96 30
NI 15:00:00 TS 15.07 77.45 30
NI 18:00:00 TS 15.23 76.92 30
NI 21:00:00 TS 15.39 76.38 30
NI 1889-10-17 00:00:00 TS 15.54 75.90 30
NI 03:00:00 TS 15.63 75.57 30
NI 06:00:00 TS 15.68 75.36 30
NI 09:00:00 TS 15.72 75.20 30
NI 12:00:00 TS 15.77 75.06 30
NI 15:00:00 TS 15.84 74.90 30
NI 18:00:00 TS 15.95 74.70 30
NI 21:00:00 TS 16.07 74.55 30
NI 1889-10-18 00:00:00 TS 16.22 74.44 30
NI 03:00:00 TS 16.40 74.38 30
NI 06:00:00 TS 16.59 74.40 30
NI 09:00:00 TS 16.76 74.50 30
NI 12:00:00 TS 16.92 74.64 30
NI 15:00:00 TS 17.06 74.75 30
NI 18:00:00 TS 17.14 74.83 30
NI 21:00:00 TS 17.18 74.91 30
NI 1889-10-19 00:00:00 TS 17.25 75.08 30
NI 03:00:00 TS 17.41 75.42 30
NI 06:00:00 TS 17.65 75.90 30
NI 09:00:00 TS 17.87 76.40 30
NI 12:00:00 TS 18.09 76.93 30
NI 15:00:00 TS 18.28 77.43 30
NI 18:00:00 TS 18.44 77.90 30
NI 21:00:00 TS 18.60 78.40 30
NI 1889-10-20 00:00:00 TS 18.74 78.82 30
NI 03:00:00 TS 18.86 79.09 30
NI 06:00:00 TS 18.95 79.27 30
NI 09:00:00 TS 19.02 79.46 30
NI 12:00:00 TS 19.07 79.63 30
NI 15:00:00 TS 19.12 79.80 30
NI 18:00:00 TS 19.17 79.98 30
NI 21:00:00 TS 19.22 80.20 30
NI 1889-10-21 00:00:00 TS 19.27 80.43 30
NI 03:00:00 NR 19.30 80.60

Source Information

Agency Information
USA
TOKYO
CMA
HKO
NEWDELHI
REUNION
BOM
NADI
WELLINGTON
DS824 n_ind.dat:141:NOT NAMED
TD9636 cons_worldwide_trop_cyclone_18710101-19891231-004:Line=1441
TD9635
NEUMANN
MLC

All available IBTrACS Data

SEASON BASIN SUBBASIN ISO_TIME_________ NATURE LAT LON DIST2LAND LANDFALL IFLAG USA SSHS DS824 LAT DS824 LON DS824 STAGE DS824 WIND TD9636 LAT TD9636 LON TD9636 STAGE STORM SPEED STORM DIR
Year degrees north degrees east km km 1 degrees north degrees east kts degrees north degrees east kts degrees
1889 NI BB 1889-10-15 00:00:00 TS 14.00 83.00 292 260 _________O____ -1 14.00 83.00 TC 45 5 277
1889 NI BB 03:00:00 TS 14.03 82.73 260 229 _________PO___ -1 14.05 82.60 TC 45 14.00 83.00 3 6 277
1889 NI BB 06:00:00 TS 14.08 82.36 229 186 _________OP___ -1 14.10 82.20 TC 45 14.05 82.60 3 7 277
1889 NI BB 09:00:00 TS 14.13 81.98 186 147 _________PP___ -1 14.15 81.81 TC 45 14.10 82.20 3 7 277
1889 NI BB 12:00:00 TS 14.17 81.60 147 106 _________OP___ -1 14.20 81.40 TC 45 14.15 81.80 3 8 277
1889 NI BB 15:00:00 TS 14.22 81.17 106 72 _________PO___ -1 14.24 80.95 TC 45 14.20 81.40 3 8 277
1889 NI BB 18:00:00 TS 14.28 80.75 63 31 _________OP___ -1 14.30 80.50 TC 45 14.26 80.99 3 8 280
1889 NI BB 21:00:00 TS 14.36 80.34 21 0 _________PP___ -1 14.39 80.11 TC 45 14.33 80.58 3 8 282
1889 NI BB 1889-10-16 00:00:00 TS 14.45 79.93 0 0 _________OP___ -1 14.50 79.70 TC 45 14.41 80.15 3 9 282
1889 NI BB 03:00:00 TS 14.55 79.46 0 0 _________PO___ -1 14.59 79.21 TC 41 14.50 79.70 3 10 282
1889 NI BB 06:00:00 TS 14.65 78.96 0 0 _________OP___ -1 14.70 78.70 TC 37 14.61 79.22 3 10 284
1889 NI BB 09:00:00 TS 14.78 78.46 0 0 _________PP___ -1 14.84 78.20 TC 33 14.73 78.72 3 10 286
1889 NI AS 12:00:00 TS 14.93 77.96 0 0 _________OP___ -1 15.00 77.70 TC 30 14.86 78.21 3 10 287
1889 NI AS 15:00:00 TS 15.07 77.45 0 0 _________PO___ -1 15.15 77.20 TC 30 15.00 77.70 1 10 287
1889 NI AS 18:00:00 TS 15.23 76.92 0 0 _________OP___ -1 15.30 76.70 TC 30 15.16 77.15 1 11 287
1889 NI AS 21:00:00 TS 15.39 76.38 0 0 _________PP___ -1 15.47 76.16 TC 30 15.32 76.60 1 10 287
1889 NI AS 1889-10-17 00:00:00 TS 15.54 75.90 0 0 _________OP___ -1 15.60 75.70 TC 30 15.48 76.11 1 8 287
1889 NI AS 03:00:00 TS 15.63 75.57 0 0 _________PO___ -1 15.66 75.45 TC 30 15.60 75.70 1 5 286
1889 NI AS 06:00:00 TS 15.68 75.36 0 0 _________OP___ -1 15.70 75.30 TC 30 15.67 75.43 1 4 284
1889 NI AS 09:00:00 TS 15.72 75.20 0 0 _________PP___ -1 15.74 75.15 TC 30 15.71 75.24 1 3 287
1889 NI AS 12:00:00 TS 15.77 75.06 0 0 _________OP___ -1 15.80 75.00 TC 30 15.74 75.11 1 3 292
1889 NI AS 15:00:00 TS 15.84 74.90 0 0 _________PO___ -1 15.89 74.79 TC 30 15.80 75.00 1 4 297
1889 NI AS 18:00:00 TS 15.95 74.70 0 0 _________OP___ -1 16.00 74.60 TC 30 15.90 74.81 1 4 305
1889 NI AS 21:00:00 TS 16.07 74.55 0 0 _________PP___ -1 16.13 74.47 TC 30 16.01 74.63 1 4 317
1889 NI AS 1889-10-18 00:00:00 TS 16.22 74.44 0 0 _________OP___ -1 16.30 74.40 TC 30 16.15 74.48 1 4 334
1889 NI AS 03:00:00 TS 16.40 74.38 0 0 _________PO___ -1 16.50 74.36 TC 30 16.30 74.40 1 4 353
1889 NI AS 06:00:00 TS 16.59 74.40 0 0 _________OP___ -1 16.70 74.40 TC 30 16.48 74.40 1 4 17
1889 NI AS 09:00:00 TS 16.76 74.50 0 0 _________PP___ -1 16.87 74.53 TC 30 16.66 74.47 1 4 34
1889 NI AS 12:00:00 TS 16.92 74.64 0 0 _________OP___ -1 17.00 74.70 TC 30 16.85 74.57 1 4 39
1889 NI AS 15:00:00 TS 17.06 74.75 0 0 _________PO___ -1 17.11 74.80 TC 30 17.00 74.70 1 3 40
1889 NI AS 18:00:00 TS 17.14 74.83 0 0 _________OP___ -1 17.20 74.90 TC 30 17.08 74.75 1 2 51
1889 NI AS 21:00:00 TS 17.18 74.91 0 0 _________PP___ -1 17.23 74.99 TC 30 17.13 74.82 1 3 66
1889 NI AS 1889-10-19 00:00:00 TS 17.25 75.08 0 0 _________OP___ -1 17.30 75.20 TC 30 17.20 74.96 1 5 65
1889 NI AS 03:00:00 TS 17.41 75.42 0 0 _________PO___ -1 17.53 75.65 TC 30 17.30 75.20 1 9 63
1889 NI AS 06:00:00 TS 17.65 75.90 0 0 _________OP___ -1 17.80 76.20 TC 30 17.49 75.60 1 10 64
1889 NI AS 09:00:00 TS 17.87 76.40 0 0 _________PP___ -1 18.01 76.71 TC 30 17.73 76.10 1 11 66
1889 NI AS 12:00:00 TS 18.09 76.93 0 0 _________OP___ -1 18.20 77.20 TC 30 17.97 76.65 1 11 67
1889 NI AS 15:00:00 TS 18.28 77.43 0 0 _________PO___ -1 18.36 77.66 TC 30 18.20 77.20 1 10 69
1889 NI AS 18:00:00 TS 18.44 77.90 0 0 _________OP___ -1 18.50 78.10 TC 30 18.38 77.71 1 10 71
1889 NI BB 21:00:00 TS 18.60 78.40 0 0 _________PP___ -1 18.66 78.59 TC 30 18.55 78.20 1 9 71
1889 NI BB 1889-10-20 00:00:00 TS 18.74 78.82 0 0 _________OP___ -1 18.80 79.00 TC 30 18.68 78.64 1 7 69
1889 NI BB 03:00:00 TS 18.86 79.09 0 0 _________PO___ -1 18.91 79.19 TC 30 18.80 79.00 1 5 64
1889 NI BB 06:00:00 TS 18.95 79.27 0 0 _________OP___ -1 19.00 79.30 TC 30 18.90 79.25 1 4 65
1889 NI BB 09:00:00 TS 19.02 79.46 0 0 _________PP___ -1 19.06 79.49 TC 30 18.98 79.42 1 4 70
1889 NI BB 12:00:00 TS 19.07 79.63 0 0 _________OP___ -1 19.10 79.70 TC 30 19.04 79.56 1 3 72
1889 NI BB 15:00:00 TS 19.12 79.80 0 0 _________PO___ -1 19.15 79.89 TC 30 19.10 79.70 1 3 73
1889 NI BB 18:00:00 TS 19.17 79.98 0 0 _________OP___ -1 19.20 80.10 TC 30 19.15 79.88 1 4 76
1889 NI BB 21:00:00 TS 19.22 80.20 0 0 _________PP___ -1 19.25 80.34 TC 30 19.20 80.10 1 4 77
1889 NI BB 1889-10-21 00:00:00 TS 19.27 80.43 0 0 _________OP___ -1 19.30 80.60 TC 30 19.25 80.35 1 4 78
1889 NI BB 03:00:00 NR 19.30 80.60 0 __________O___ -1 TC 19.30 80.60 1 3 79